Airfield :
LOGIN :

Register | Disclaimer

   EN    FR    IT 

 










Legend :    VFR   Marginal VFR   IFR   Intensive IFR   Very Intensive IFR
Visi :
Ceiling :
>= 8 km
>= 3000ft
5 to 8 km
1000 to 3000 ft
1500m to 5 km
500 to 1000 ft
800 to 1500m
200 to 500 ft
< 800m
< 200 ft
Symbols :   Thunderstorms  Fog  Heavy snow  Heavy precipitations  Wind > 20 kt
SIGMETs :     Misc.  Thunderstorms  Icing  Turbulence  Mountain Waves  Volcanic Ashes






- Airport Elevation : 327 ft
- IATA code : BHX


EGBB - Birmingham

CURRENT METAR :
  • 040320Z AUTO 16003KT 9999 NCD 03/02 Q1018

EXPIRED METARs :
  • 040250Z AUTO 15004KT 9999 NCD 03/02 Q1019
  • 040220Z AUTO 14003KT 9999 NCD 03/02 Q1019
  • 040150Z AUTO 17005KT 9999 NCD 04/02 Q1019
  • 040120Z AUTO 14004KT 9999 NCD 04/02 Q1019
  • 040050Z AUTO 23003KT 9999 NCD 06/03 Q1019

TAF TAF EGBB
Valid from the 04 at 00:00 until the 05 at 00:00 UTC


032302Z 0400/0424 20004KT 9999 SCT045
PROB30 0400/0403 8000
PROB30 0403/0408 4000 BR
PROB30
TEMPO 0421/0424 15015G25KT
ATIS : +44 121 780 0910



MET'MAP, your aeronautical weather chart ! - Copyright ORBIFLY December 2007 - Disclaimer

ORBIFLY MET'MAP TEAM :

Programming & Development : Alexandra Zaïnal
Concept & original design : Baudouin d'Aumeries
Assistance for programming : Marc-Olivier Méhu
Technical & hardware support : Manuel Goepfert

Contact : metmap@orbifly.com




SOURCES & CREDITS :

   NOAA